createdAt,value
2023-12-12T00:02:03.810Z,11.03
2023-12-12T00:04:30.819Z,10.47
2023-12-12T00:06:57.807Z,11.07
2023-12-12T00:09:24.865Z,10.77
2023-12-12T00:11:53.722Z,10.70
2023-12-12T00:14:20.711Z,10.87
2023-12-12T00:16:47.768Z,11.43
2023-12-12T00:19:14.845Z,9.93
2023-12-12T00:21:41.837Z,9.80
2023-12-12T00:24:09.356Z,10.47
2023-12-12T00:26:36.356Z,9.27
2023-12-12T00:29:03.293Z,9.83
2023-12-12T00:31:30.372Z,10.00
2023-12-12T00:33:57.471Z,10.47
2023-12-12T00:36:24.568Z,9.57
2023-12-12T00:38:51.498Z,9.87
2023-12-12T00:41:18.442Z,9.53
2023-12-12T00:43:45.417Z,10.17
2023-12-12T00:46:12.474Z,9.20
2023-12-12T00:48:39.590Z,9.87
2023-12-12T00:51:10.119Z,9.57
2023-12-12T00:53:37.091Z,9.13
2023-12-12T00:56:05.137Z,9.27
2023-12-12T00:58:32.175Z,8.80
2023-12-12T01:00:59.200Z,9.33
2023-12-12T01:03:26.340Z,9.77
2023-12-12T01:05:53.441Z,10.10
2023-12-12T01:08:20.407Z,9.33
2023-12-12T01:10:47.325Z,9.17
2023-12-12T01:13:14.278Z,8.80
2023-12-12T01:15:41.236Z,8.80
2023-12-12T01:18:08.590Z,9.63
2023-12-12T01:20:35.627Z,9.53
2023-12-12T01:23:02.553Z,8.43
2023-12-12T01:25:30.629Z,8.57
2023-12-12T01:27:58.103Z,9.10
2023-12-12T01:30:25.117Z,9.03
2023-12-12T01:32:52.087Z,8.53
2023-12-12T01:35:19.052Z,9.13
2023-12-12T01:37:46.189Z,9.07
2023-12-12T01:40:13.404Z,9.03
2023-12-12T01:42:40.354Z,9.03
2023-12-12T01:45:08.542Z,8.50
2023-12-12T01:47:35.924Z,9.37
2023-12-12T01:50:03.546Z,8.90
2023-12-12T01:52:30.828Z,8.63
2023-12-12T01:54:59.239Z,9.47
2023-12-12T01:57:26.509Z,9.60
2023-12-12T01:59:53.967Z,9.97
2023-12-12T02:02:21.155Z,9.70
2023-12-12T02:04:50.622Z,9.20
2023-12-12T02:07:18.741Z,10.77
2023-12-12T02:09:46.018Z,10.97
2023-12-12T02:12:13.081Z,12.43
2023-12-12T02:14:41.060Z,12.03
2023-12-12T02:17:08.121Z,9.83
2023-12-12T02:19:35.217Z,10.60
2023-12-12T02:22:02.422Z,10.67
2023-12-12T02:24:29.382Z,9.87
2023-12-12T02:26:56.848Z,10.03
2023-12-12T02:29:24.113Z,9.70
2023-12-12T02:31:51.074Z,9.37
2023-12-12T02:34:18.107Z,9.10
2023-12-12T02:36:45.812Z,9.67
2023-12-12T02:39:13.684Z,9.43
2023-12-12T02:41:40.610Z,9.43
2023-12-12T02:44:07.613Z,9.57
2023-12-12T02:46:34.639Z,10.40
2023-12-12T02:49:01.690Z,10.27
2023-12-12T02:51:28.746Z,10.77
2023-12-12T02:53:55.715Z,9.43
2023-12-12T02:56:22.685Z,9.87
2023-12-12T02:58:49.840Z,11.20
2023-12-12T03:01:16.910Z,11.43
2023-12-12T03:03:44.301Z,10.43
2023-12-12T03:06:11.313Z,10.77
2023-12-12T03:08:38.285Z,10.53
2023-12-12T03:11:05.316Z,11.40
2023-12-12T03:13:34.355Z,11.67
2023-12-12T03:16:01.615Z,11.33
2023-12-12T03:18:28.889Z,11.60
2023-12-12T03:20:55.941Z,11.37
2023-12-12T03:23:23.550Z,11.67
2023-12-12T03:25:50.604Z,11.50
2023-12-12T03:28:18.764Z,11.73
2023-12-12T03:30:45.824Z,11.93
2023-12-12T03:33:12.857Z,12.20
2023-12-12T03:35:39.969Z,12.13
2023-12-12T03:38:06.954Z,11.30
2023-12-12T03:40:33.961Z,11.80
2023-12-12T03:43:01.005Z,12.13
2023-12-12T03:45:28.094Z,12.20
2023-12-12T03:47:55.220Z,12.00
2023-12-12T03:50:22.266Z,12.23
2023-12-12T03:52:49.216Z,11.80
2023-12-12T03:55:16.231Z,12.30
2023-12-12T03:57:43.240Z,13.03
2023-12-12T04:00:11.883Z,12.67
2023-12-12T04:02:42.368Z,12.07
2023-12-12T04:05:13.144Z,11.83
2023-12-12T04:07:40.624Z,13.70
2023-12-12T04:10:09.112Z,13.17
2023-12-12T04:12:37.289Z,12.03
2023-12-12T04:15:04.770Z,13.43
2023-12-12T04:17:32.415Z,14.30
2023-12-12T04:19:59.803Z,17.23
2023-12-12T04:22:26.913Z,15.87
2023-12-12T04:24:54.050Z,16.13
2023-12-12T04:27:20.989Z,15.90
2023-12-12T04:29:49.055Z,14.47
2023-12-12T04:32:16.388Z,18.50
2023-12-12T04:34:43.639Z,17.37
2023-12-12T04:37:10.733Z,14.83
2023-12-12T04:39:38.208Z,13.10
2023-12-12T04:42:05.853Z,13.63
2023-12-12T04:44:32.929Z,12.97
2023-12-12T04:46:59.976Z,13.63
2023-12-12T04:49:27.181Z,14.00
2023-12-12T04:51:54.357Z,15.13
2023-12-12T04:54:21.373Z,14.37
2023-12-12T04:56:48.356Z,13.20
2023-12-12T04:59:15.311Z,15.93
2023-12-12T05:01:43.462Z,15.27
2023-12-12T05:04:10.542Z,16.20
2023-12-12T05:06:37.554Z,15.47
2023-12-12T05:09:04.840Z,17.03
2023-12-12T05:11:31.903Z,19.27
2023-12-12T05:13:58.981Z,19.33
2023-12-12T05:16:31.731Z,18.03
2023-12-12T05:19:00.336Z,23.67
2023-12-12T05:21:28.130Z,22.33
2023-12-12T05:23:55.385Z,20.03
2023-12-12T05:26:22.422Z,19.63
2023-12-12T05:28:50.098Z,15.57
2023-12-12T05:31:17.253Z,15.30
2023-12-12T05:33:44.510Z,18.83
2023-12-12T05:36:11.919Z,16.50
2023-12-12T05:38:40.363Z,13.47
2023-12-12T05:41:08.101Z,14.47
2023-12-12T05:43:35.538Z,13.40
2023-12-12T05:46:04.374Z,13.33
2023-12-12T05:48:31.734Z,12.77
2023-12-12T05:50:58.954Z,12.53
2023-12-12T05:53:27.728Z,12.43
2023-12-12T05:55:57.153Z,12.80
2023-12-12T05:58:24.404Z,11.53
2023-12-12T06:00:52.899Z,11.13
2023-12-12T06:03:20.566Z,10.50
2023-12-12T06:05:47.586Z,11.80
2023-12-12T06:08:14.555Z,12.43
2023-12-12T06:10:41.629Z,11.83
2023-12-12T06:13:09.783Z,12.17
2023-12-12T06:15:36.871Z,12.33
2023-12-12T06:18:04.072Z,12.53
2023-12-12T06:20:33.624Z,10.87
2023-12-12T06:23:00.796Z,16.00
2023-12-12T06:25:27.911Z,16.07
2023-12-12T06:27:55.104Z,14.70
2023-12-12T06:30:22.256Z,18.20
2023-12-12T06:32:49.600Z,14.10
2023-12-12T06:35:16.725Z,15.93
2023-12-12T06:37:44.236Z,16.33
2023-12-12T06:40:14.571Z,17.23
2023-12-12T06:42:44.969Z,13.47
2023-12-12T06:45:11.958Z,13.63
2023-12-12T06:47:39.025Z,13.90
2023-12-12T06:50:07.164Z,14.00
2023-12-12T06:52:34.832Z,14.27
2023-12-12T06:55:02.145Z,13.83
2023-12-12T06:57:29.768Z,12.63
2023-12-12T06:59:57.325Z,13.40
2023-12-12T07:02:24.302Z,13.50
2023-12-12T07:04:51.395Z,13.77
2023-12-12T07:07:18.649Z,15.00
2023-12-12T07:09:45.665Z,14.53
2023-12-12T07:15:11.120Z,13.97
2023-12-12T07:17:38.386Z,13.90
2023-12-12T07:20:06.946Z,13.50
2023-12-12T07:22:34.025Z,14.80
2023-12-12T07:25:01.304Z,14.20
2023-12-12T07:27:28.480Z,13.83
2023-12-12T07:29:55.484Z,15.60
2023-12-12T07:32:22.509Z,15.87
2023-12-12T07:34:49.520Z,15.10
2023-12-12T07:37:16.645Z,14.80
2023-12-12T07:39:43.618Z,14.87
2023-12-12T07:42:10.632Z,17.00
2023-12-12T07:44:37.622Z,15.60
2023-12-12T07:47:04.897Z,15.93
2023-12-12T07:49:32.236Z,16.23
2023-12-12T07:51:59.324Z,16.30
2023-12-12T07:54:26.464Z,16.87
2023-12-12T07:56:54.530Z,16.87
2023-12-12T07:59:21.573Z,16.80
2023-12-12T08:01:49.263Z,16.63
2023-12-12T08:04:16.860Z,16.90
2023-12-12T08:06:44.074Z,17.43
2023-12-12T08:09:11.385Z,17.03
2023-12-12T08:11:38.470Z,19.43
2023-12-12T08:14:05.606Z,17.93
2023-12-12T08:16:33.346Z,18.30
2023-12-12T08:19:00.535Z,19.90
2023-12-12T08:21:27.694Z,21.17
2023-12-12T08:23:55.675Z,20.03
2023-12-12T08:26:25.759Z,20.70
2023-12-12T08:28:53.075Z,16.53
2023-12-12T08:31:20.296Z,15.33
2023-12-12T08:33:47.448Z,16.07
2023-12-12T08:36:14.496Z,16.77
2023-12-12T08:38:41.593Z,15.53
2023-12-12T08:41:11.256Z,14.73
2023-12-12T08:43:41.511Z,23.77
2023-12-12T08:46:08.578Z,21.13
2023-12-12T08:48:35.594Z,22.00
2023-12-12T08:51:02.683Z,18.63
2023-12-12T08:53:30.745Z,15.63
2023-12-12T08:55:57.834Z,15.50
2023-12-12T08:58:25.032Z,20.37
2023-12-12T09:00:55.648Z,19.27
2023-12-12T09:03:22.896Z,18.10
2023-12-12T09:05:50.608Z,14.23
2023-12-12T09:08:18.203Z,11.83
2023-12-12T09:10:45.847Z,11.53
2023-12-12T09:13:13.120Z,12.33
2023-12-12T09:15:40.146Z,10.60
2023-12-12T09:18:16.742Z,11.37
2023-12-12T09:20:48.067Z,11.30
2023-12-12T09:23:16.768Z,10.53
2023-12-12T09:25:44.302Z,11.13
2023-12-12T09:28:11.333Z,11.70
2023-12-12T09:30:38.725Z,11.37
2023-12-12T09:33:05.864Z,11.60
2023-12-12T09:35:36.185Z,12.23
2023-12-12T09:38:03.867Z,11.23
2023-12-12T09:40:31.407Z,10.70
2023-12-12T09:42:59.127Z,11.27
2023-12-12T09:45:26.525Z,11.10
2023-12-12T09:47:55.654Z,10.70
2023-12-12T09:50:22.781Z,12.23
2023-12-12T09:52:50.918Z,11.13
2023-12-12T09:55:23.627Z,11.07
2023-12-12T09:57:51.029Z,11.67
2023-12-12T10:00:19.437Z,10.57
2023-12-12T10:02:47.480Z,12.53
2023-12-12T10:05:16.189Z,11.73
2023-12-12T10:07:44.623Z,12.00
2023-12-12T10:10:15.954Z,12.20
2023-12-12T10:12:43.014Z,11.97
2023-12-12T10:15:24.453Z,11.60
2023-12-12T10:17:59.439Z,10.47
2023-12-12T10:20:28.545Z,10.57
2023-12-12T10:23:02.332Z,10.30
2023-12-12T10:25:31.218Z,9.33
2023-12-12T10:27:59.216Z,8.93
2023-12-12T10:30:27.839Z,8.37
2023-12-12T10:32:56.775Z,9.77
2023-12-12T10:35:26.519Z,9.03
2023-12-12T10:37:54.600Z,8.20
2023-12-12T10:40:24.686Z,7.30
2023-12-12T10:42:52.860Z,8.00
2023-12-12T10:45:22.021Z,7.33
2023-12-12T10:47:52.322Z,6.17
2023-12-12T10:50:20.402Z,6.07
2023-12-12T10:52:49.834Z,6.40
2023-12-12T10:55:18.210Z,6.43
2023-12-12T10:57:48.332Z,6.30
2023-12-12T11:00:19.481Z,6.27
2023-12-12T11:02:49.094Z,6.80
2023-12-12T11:05:17.517Z,6.67
2023-12-12T11:07:48.178Z,6.87
2023-12-12T11:10:20.561Z,7.73
2023-12-12T11:12:53.143Z,7.07
2023-12-12T11:15:21.570Z,5.67
2023-12-12T11:17:49.104Z,6.13
2023-12-12T11:20:19.163Z,7.07
2023-12-12T11:22:49.393Z,7.50
2023-12-12T11:25:21.017Z,7.83
2023-12-12T11:27:54.474Z,6.70
2023-12-12T11:30:32.807Z,8.13
2023-12-12T11:33:00.148Z,7.97
2023-12-12T11:35:33.760Z,8.63
2023-12-12T11:38:07.111Z,8.50
2023-12-12T11:40:36.343Z,8.30
2023-12-12T11:43:25.774Z,9.03
2023-12-12T11:45:55.723Z,8.50
2023-12-12T11:48:23.419Z,8.10
2023-12-12T11:50:51.046Z,8.83
2023-12-12T11:53:39.397Z,8.80
2023-12-12T11:56:06.694Z,8.43
2023-12-12T11:58:33.772Z,8.03
2023-12-12T12:01:00.873Z,7.80
2023-12-12T12:03:27.927Z,7.63
2023-12-12T12:05:55.383Z,7.80
2023-12-12T12:08:25.993Z,7.97
2023-12-12T12:10:59.576Z,7.93
2023-12-12T12:13:42.046Z,6.23
2023-12-12T12:16:10.173Z,6.87
2023-12-12T12:18:39.036Z,6.80
2023-12-12T12:21:09.184Z,6.80
2023-12-12T12:23:40.387Z,7.67
2023-12-12T12:26:07.957Z,8.13
2023-12-12T12:28:36.161Z,8.63
2023-12-12T12:31:06.161Z,8.87
2023-12-12T12:33:39.118Z,9.70
2023-12-12T12:36:07.172Z,9.10
2023-12-12T12:38:34.432Z,10.33
2023-12-12T12:41:01.499Z,12.03
2023-12-12T12:43:28.753Z,12.70
2023-12-12T12:45:57.763Z,11.27
2023-12-12T12:48:29.269Z,10.37
2023-12-12T12:50:57.961Z,9.27
2023-12-12T12:53:24.955Z,9.10
2023-12-12T12:55:52.219Z,11.30
2023-12-12T12:58:19.258Z,12.97
2023-12-12T13:00:47.446Z,15.00
2023-12-12T13:03:15.095Z,13.37
2023-12-12T13:05:42.467Z,14.57
2023-12-12T13:08:10.262Z,15.17
2023-12-12T13:10:46.800Z,15.40
2023-12-12T13:13:20.502Z,14.13
2023-12-12T13:15:47.843Z,15.67
2023-12-12T13:18:15.571Z,16.90
2023-12-12T13:20:46.684Z,17.43
2023-12-12T13:23:13.785Z,20.90
2023-12-12T13:25:42.199Z,20.67
2023-12-12T13:28:09.351Z,22.27
2023-12-12T13:30:37.556Z,18.90
2023-12-12T13:33:07.811Z,16.73
2023-12-12T13:35:37.473Z,16.60
2023-12-12T13:38:05.363Z,24.53
2023-12-12T13:40:33.424Z,23.53
2023-12-12T13:43:01.005Z,17.93
2023-12-12T13:45:28.267Z,15.50
2023-12-12T13:47:55.740Z,18.00
2023-12-12T13:50:23.508Z,17.27
2023-12-12T13:52:50.596Z,14.23
2023-12-12T13:55:17.605Z,19.50
2023-12-12T13:57:45.667Z,17.30
2023-12-12T14:00:17.602Z,16.87
2023-12-12T14:02:46.354Z,17.23
2023-12-12T14:05:13.902Z,16.13
2023-12-12T14:07:41.113Z,16.90
2023-12-12T14:10:08.660Z,17.00
2023-12-12T14:12:36.978Z,17.23
2023-12-12T14:15:05.577Z,15.23
2023-12-12T14:17:33.101Z,17.50
2023-12-12T14:20:01.337Z,17.90
2023-12-12T14:22:28.677Z,18.07
2023-12-12T14:24:55.719Z,22.63
2023-12-12T14:27:23.444Z,21.90
2023-12-12T14:29:50.481Z,20.07
2023-12-12T14:32:20.398Z,22.97
2023-12-12T14:34:47.483Z,24.43
2023-12-12T14:37:14.676Z,26.50
2023-12-12T14:39:42.064Z,22.30
2023-12-12T14:42:09.076Z,24.20
2023-12-12T14:44:36.015Z,23.60
2023-12-12T14:47:02.946Z,20.87
2023-12-12T14:49:30.036Z,26.73
2023-12-12T14:51:58.119Z,20.67
2023-12-12T14:54:25.668Z,24.63
2023-12-12T14:56:57.763Z,20.70
2023-12-12T14:59:29.355Z,24.73
2023-12-12T15:01:56.342Z,21.07
2023-12-12T15:04:23.342Z,27.30
2023-12-12T15:06:50.309Z,26.63
2023-12-12T15:09:17.756Z,26.30
2023-12-12T15:11:44.786Z,27.47
2023-12-12T15:14:11.847Z,27.27
2023-12-12T15:16:40.098Z,25.47
2023-12-12T15:19:09.129Z,22.53
2023-12-12T15:21:36.143Z,25.00
2023-12-12T15:24:03.470Z,21.47
2023-12-12T15:26:32.325Z,20.10
2023-12-12T15:29:02.311Z,22.07
2023-12-12T15:31:32.429Z,19.67
2023-12-12T15:33:59.638Z,17.97
2023-12-12T15:36:26.646Z,17.10
2023-12-12T15:38:53.672Z,17.43
2023-12-12T15:41:20.650Z,18.40
2023-12-12T15:43:47.631Z,18.93
2023-12-12T15:46:19.406Z,19.90
2023-12-12T15:48:47.251Z,19.20
2023-12-12T15:51:15.034Z,21.07
2023-12-12T15:53:42.042Z,20.90
2023-12-12T15:56:12.904Z,17.97
2023-12-12T15:58:43.303Z,17.00
2023-12-12T16:01:11.547Z,17.33
2023-12-12T16:03:39.327Z,16.63
2023-12-12T16:06:07.742Z,17.33
2023-12-12T16:08:35.091Z,16.67
2023-12-12T16:11:02.129Z,18.33
2023-12-12T16:13:29.921Z,17.30
2023-12-12T16:15:57.012Z,18.27
2023-12-12T16:18:25.328Z,18.93
2023-12-12T16:20:52.457Z,17.57
2023-12-12T16:23:19.488Z,17.20
2023-12-12T16:25:46.612Z,16.27
2023-12-12T16:28:14.446Z,14.27
2023-12-12T16:30:41.545Z,14.30
2023-12-12T16:33:11.958Z,16.63
2023-12-12T16:35:39.138Z,18.40
2023-12-12T16:38:06.222Z,17.03
2023-12-12T16:40:40.838Z,16.77
2023-12-12T16:43:08.024Z,17.73
2023-12-12T16:45:35.057Z,15.50
2023-12-12T16:48:02.242Z,15.20
2023-12-12T16:50:29.442Z,16.30
2023-12-12T16:52:56.612Z,18.73
2023-12-12T16:55:23.855Z,19.73
2023-12-12T16:57:51.501Z,24.47
2023-12-12T17:00:18.847Z,22.70
2023-12-12T17:02:47.284Z,28.50
2023-12-12T17:05:15.147Z,28.47
2023-12-12T17:07:43.020Z,23.37
2023-12-12T17:10:10.833Z,19.77
2023-12-12T17:12:38.965Z,21.87
2023-12-12T17:15:07.374Z,22.53
2023-12-12T17:17:35.113Z,28.40
2023-12-12T17:20:02.929Z,27.07
2023-12-12T17:22:30.501Z,29.87
2023-12-12T17:24:58.184Z,25.20
2023-12-12T17:27:25.327Z,23.20
2023-12-12T17:29:52.352Z,18.97
2023-12-12T17:32:19.272Z,17.43
2023-12-12T17:34:50.366Z,19.53
2023-12-12T17:37:17.513Z,20.13
2023-12-12T17:39:44.480Z,18.77
2023-12-12T17:42:11.458Z,44.00
2023-12-12T17:44:38.448Z,39.93
2023-12-12T17:47:05.621Z,21.47
2023-12-12T17:49:32.674Z,17.17
2023-12-12T17:51:59.715Z,20.47
2023-12-12T17:54:26.638Z,35.63
2023-12-12T17:56:53.600Z,43.47
2023-12-12T17:59:20.588Z,20.20
2023-12-12T18:01:47.682Z,16.90
2023-12-12T18:04:15.380Z,13.20
2023-12-12T18:06:42.427Z,13.87
2023-12-12T18:09:11.166Z,14.37
2023-12-12T18:11:39.179Z,13.97
2023-12-12T18:14:06.258Z,14.20
2023-12-12T18:16:33.870Z,13.77
2023-12-12T18:19:03.570Z,12.93
2023-12-12T18:21:31.546Z,15.43
2023-12-12T18:23:59.301Z,14.03
2023-12-12T18:26:32.280Z,15.17
2023-12-12T18:29:01.177Z,15.00
2023-12-12T18:31:30.761Z,16.83
2023-12-12T18:33:58.914Z,16.70
2023-12-12T18:36:26.348Z,17.60
2023-12-12T18:38:53.582Z,16.30
2023-12-12T18:41:24.217Z,18.50
2023-12-12T18:43:51.272Z,20.03
2023-12-12T18:46:18.460Z,27.47
2023-12-12T18:48:45.690Z,22.20
2023-12-12T18:51:12.931Z,24.30
2023-12-12T18:53:40.372Z,22.17
2023-12-12T18:56:09.268Z,29.07
2023-12-12T18:58:36.862Z,20.30
2023-12-12T19:01:05.227Z,22.20
2023-12-12T19:03:32.549Z,26.53
2023-12-12T19:05:59.676Z,29.33
2023-12-12T19:08:26.625Z,27.53
2023-12-12T19:10:55.075Z,33.73
2023-12-12T19:13:22.143Z,35.43
2023-12-12T19:15:49.140Z,34.70
2023-12-12T19:18:16.218Z,35.00
2023-12-12T19:20:43.343Z,32.67
2023-12-12T19:23:11.680Z,33.13
2023-12-12T19:25:38.738Z,33.47
2023-12-12T19:28:05.889Z,32.97
2023-12-12T19:30:34.220Z,32.27
2023-12-12T19:33:02.052Z,40.60
2023-12-12T19:35:29.065Z,31.60
2023-12-12T19:37:56.122Z,27.17
2023-12-12T19:40:23.222Z,28.60
2023-12-12T19:42:55.468Z,27.27
2023-12-12T19:45:24.722Z,26.10
2023-12-12T19:47:52.339Z,30.27
2023-12-12T19:50:19.562Z,29.67
2023-12-12T19:52:48.069Z,29.57
2023-12-12T19:55:15.265Z,34.00
2023-12-12T19:57:42.299Z,32.60
2023-12-12T20:00:10.580Z,37.33
2023-12-12T20:02:40.537Z,40.73
2023-12-12T20:05:09.004Z,38.30
2023-12-12T20:07:38.932Z,38.83
2023-12-12T20:10:06.748Z,32.97
2023-12-12T20:12:33.747Z,36.23
2023-12-12T20:15:01.106Z,35.73
2023-12-12T20:17:28.559Z,34.37
2023-12-12T20:19:55.677Z,32.80
2023-12-12T20:22:22.763Z,33.30
2023-12-12T20:24:49.972Z,34.07
2023-12-12T20:27:16.944Z,32.53
2023-12-12T20:29:44.219Z,32.73
2023-12-12T20:32:11.512Z,34.30
2023-12-12T20:34:38.684Z,33.80
2023-12-12T20:37:05.812Z,25.37
2023-12-12T20:39:32.929Z,24.33
2023-12-12T20:41:59.967Z,25.10
2023-12-12T20:44:27.065Z,23.73
2023-12-12T20:46:54.059Z,23.97
2023-12-12T20:49:23.817Z,23.17
2023-12-12T20:51:53.182Z,22.93
2023-12-12T20:58:54.519Z,25.63
2023-12-12T21:01:21.557Z,29.50
2023-12-12T21:03:49.041Z,32.40
2023-12-12T21:06:16.050Z,34.07
2023-12-12T21:08:43.046Z,25.93
2023-12-12T21:11:16.332Z,22.93
2023-12-12T21:13:43.384Z,19.00
2023-12-12T21:16:20.472Z,19.23
2023-12-12T21:18:47.600Z,18.43
2023-12-12T21:21:14.848Z,18.70
2023-12-12T21:23:41.778Z,19.37
2023-12-12T21:26:09.070Z,19.63
2023-12-12T21:28:39.594Z,20.73
2023-12-12T21:31:07.443Z,21.10
2023-12-12T21:33:34.798Z,19.53
2023-12-12T21:36:01.879Z,19.57
2023-12-12T21:38:29.826Z,19.50
2023-12-12T21:40:57.023Z,19.60
2023-12-12T21:43:24.173Z,20.60
2023-12-12T21:45:52.427Z,18.53
2023-12-12T21:48:19.711Z,19.20
2023-12-12T21:50:46.793Z,18.77
2023-12-12T21:53:13.716Z,19.40
2023-12-12T21:55:41.162Z,19.70
2023-12-12T21:58:08.239Z,19.90
2023-12-12T22:00:35.301Z,16.93
2023-12-12T22:03:02.361Z,17.80
2023-12-12T22:05:29.450Z,17.60
2023-12-12T22:07:56.768Z,18.27
2023-12-12T22:10:24.204Z,19.87
2023-12-12T22:12:51.313Z,17.30
2023-12-12T22:15:18.273Z,18.23
2023-12-12T22:17:45.343Z,19.07
2023-12-12T22:20:12.866Z,18.13
2023-12-12T22:22:40.458Z,19.13
2023-12-12T22:25:08.332Z,18.33
2023-12-12T22:27:36.249Z,18.13
2023-12-12T22:30:03.329Z,18.17
2023-12-12T22:32:30.387Z,17.50
2023-12-12T22:34:57.508Z,18.53
2023-12-12T22:37:24.528Z,17.63
2023-12-12T22:39:51.502Z,18.93
2023-12-12T22:42:18.491Z,18.57
2023-12-12T22:44:45.498Z,20.80
2023-12-12T22:47:12.498Z,21.33
2023-12-12T22:49:39.639Z,22.50
2023-12-12T22:52:07.032Z,21.17
2023-12-12T22:54:34.161Z,23.33
2023-12-12T22:57:01.352Z,22.40
2023-12-12T22:59:28.409Z,23.17
2023-12-12T23:01:55.646Z,22.60
2023-12-12T23:04:22.808Z,23.30
2023-12-12T23:06:51.072Z,22.80
2023-12-12T23:09:22.985Z,23.07
2023-12-12T23:11:50.355Z,22.13
2023-12-12T23:14:17.668Z,23.63
2023-12-12T23:16:44.887Z,29.63
2023-12-12T23:19:12.060Z,27.70
2023-12-12T23:21:39.099Z,32.50
2023-12-12T23:24:06.714Z,35.87
2023-12-12T23:26:33.714Z,39.23
2023-12-12T23:29:00.666Z,37.07
2023-12-12T23:31:27.734Z,28.50
2023-12-12T23:33:54.765Z,24.70
2023-12-12T23:36:21.787Z,23.87
2023-12-12T23:38:48.837Z,22.23
2023-12-12T23:41:15.909Z,21.50
2023-12-12T23:43:43.036Z,20.37
2023-12-12T23:46:10.183Z,20.83
2023-12-12T23:48:37.979Z,21.40
2023-12-12T23:51:05.437Z,22.10
2023-12-12T23:53:34.654Z,20.50
2023-12-12T23:56:02.728Z,21.40
2023-12-12T23:58:29.826Z,24.03
